METAR Data
IDs: Format: Raw Decoded Include TAF

Data at: 0118 UTC 06 Dec 2019

KHYW 052355Z AUTO 00000KT 10SM CLR 04/03 A3018 RMK AO2
KHYW 052335Z AUTO 00000KT 10SM CLR 05/03 A3017 RMK AO2
KHYW 052315Z AUTO 00000KT 10SM CLR 05/03 A3016 RMK AO2
KHYW 052255Z AUTO 00000KT 10SM CLR 06/03 A3015 RMK AO2
KHYW 052235Z AUTO 00000KT 10SM CLR 07/04 A3014 RMK AO2
KHYW 052215Z AUTO 00000KT 10SM CLR 08/05 A3013 RMK AO2
KHYW 052155Z AUTO 00000KT 10SM CLR 10/03 A3012 RMK AO2
KHYW 052135Z AUTO 00000KT 10SM CLR 12/03 A3012 RMK AO2
KHYW 052115Z AUTO 00000KT 10SM CLR 14/00 A3011 RMK AO2
KHYW 052055Z AUTO 00000KT 10SM CLR 15/M01 A3010 RMK AO2
KHYW 052035Z AUTO 00000KT 10SM CLR 16/M01 A3009 RMK AO2
KHYW 052015Z AUTO 00000KT 10SM CLR 16/M02 A3008 RMK AO2
KHYW 051955Z AUTO 00000KT 10SM CLR 16/M02 A3008 RMK AO2
KHYW 051935Z AUTO 00000KT 10SM CLR 15/M02 A3008 RMK AO2
KHYW 051915Z AUTO 26005KT 10SM CLR 16/M02 A3008 RMK AO2
KHYW 051855Z AUTO 24006KT 10SM CLR 16/M01 A3008 RMK AO2
KHYW 051835Z AUTO 00000KT 10SM CLR 15/M01 A3008 RMK AO2
KHYW 051815Z AUTO 00000KT 10SM CLR 15/M02 A3008 RMK AO2
KHYW 051755Z AUTO 35003KT 10SM CLR 14/M02 A3009 RMK AO2
KHYW 051735Z AUTO 35003KT 10SM CLR 14/M01 A3009 RMK AO2
KHYW 051715Z AUTO 00000KT 10SM CLR 14/M01 A3010 RMK AO2
KHYW 051655Z AUTO 00000KT 10SM CLR 13/M01 A3010 RMK AO2
KHYW 051635Z AUTO 00000KT 10SM CLR 13/M01 A3010 RMK AO2
KHYW 051615Z AUTO 01006KT 10SM CLR 13/M01 A3011 RMK AO2
KHYW 051555Z AUTO 03008KT 10SM CLR 13/M01 A3011 RMK AO2
KHYW 051535Z AUTO 01008KT 10SM CLR 12/M01 A3011 RMK AO2
KHYW 051515Z AUTO 01010G14KT 10SM CLR 12/00 A3010 RMK AO2
KHYW 051455Z AUTO 02013KT 10SM CLR 12/00 A3009 RMK AO2
KHYW 051435Z AUTO 36007KT 340V040 10SM CLR 11/00 A3008 RMK AO2
KHYW 051415Z AUTO 01003KT 10SM CLR 10/00 A3007 RMK AO2
KHYW 051355Z AUTO 36005KT 10SM CLR 10/00 A3006 RMK AO2
KHYW 051335Z AUTO 35003KT 10SM CLR 08/00 A3006 RMK AO2 LTG DSNT E
KHYW 051315Z AUTO 36004KT 10SM CLR 07/00 A3004 RMK AO2
KHYW 051255Z AUTO 00000KT 10SM CLR 06/00 A3004 RMK AO2
KHYW 051235Z AUTO 00000KT 10SM CLR 03/01 A3003 RMK AO2
KHYW 051215Z AUTO 00000KT 10SM CLR 03/00 A3001 RMK AO2
KHYW 051155Z AUTO 00000KT 10SM CLR 03/01 A3000 RMK AO2
KHYW 051135Z AUTO 00000KT 10SM CLR 05/00 A2999 RMK AO2
KHYW 051115Z AUTO 00000KT 10SM CLR 03/01 A2998 RMK AO2
KHYW 051055Z AUTO 00000KT 10SM CLR 01/01 A2996 RMK AO2
KHYW 051035Z AUTO 00000KT 10SM CLR 01/01 A2995 RMK AO2
KHYW 051015Z AUTO 00000KT 10SM CLR 02/01 A2994 RMK AO2
KHYW 050955Z AUTO 00000KT 10SM CLR 02/01 A2993 RMK AO2
KHYW 050935Z AUTO 00000KT 10SM CLR 02/01 A2992 RMK AO2
KHYW 050915Z AUTO 00000KT 10SM CLR 03/01 A2991 RMK AO2
KHYW 050855Z AUTO 00000KT 10SM CLR 03/02 A2991 RMK AO2
KHYW 050835Z AUTO 00000KT 10SM CLR 03/02 A2990 RMK AO2
KHYW 050815Z AUTO 00000KT 10SM CLR 03/02 A2989 RMK AO2
KHYW 050755Z AUTO 22003KT 10SM CLR 03/02 A2988 RMK AO2
KHYW 050735Z AUTO 00000KT 10SM CLR 03/02 A2987 RMK AO2
KHYW 050715Z AUTO 00000KT 10SM CLR 03/02 A2987 RMK AO2
KHYW 050655Z AUTO 00000KT 10SM CLR 02/02 A2987 RMK AO2
KHYW 050635Z AUTO 00000KT 10SM CLR 02/01 A2986 RMK AO2
KHYW 050615Z AUTO 00000KT 10SM CLR 03/02 A2987 RMK AO2
KHYW 050555Z AUTO 00000KT 10SM CLR 02/02 A2986 RMK AO2
KHYW 050535Z AUTO 00000KT 10SM CLR 03/02 A2986 RMK AO2
KHYW 050515Z AUTO 00000KT 10SM CLR 05/02 A2986 RMK AO2
KHYW 050455Z AUTO 00000KT 10SM CLR 06/02 A2986 RMK AO2
KHYW 050435Z AUTO 22003KT 10SM CLR 05/02 A2986 RMK AO2
KHYW 050415Z AUTO 23003KT 10SM CLR 05/02 A2985 RMK AO2
KHYW 050355Z AUTO 22003KT 10SM CLR 06/02 A2985 RMK AO2
KHYW 050335Z AUTO 22003KT 10SM CLR 06/02 A2984 RMK AO2
KHYW 050315Z AUTO 21004KT 10SM CLR 07/02 A2984 RMK AO2
KHYW 050255Z AUTO 21003KT 10SM CLR 05/02 A2983 RMK AO2
KHYW 050235Z AUTO 22004KT 10SM CLR 04/02 A2983 RMK AO2
KHYW 050215Z AUTO 21003KT 10SM CLR 04/02 A2983 RMK AO2
KHYW 050155Z AUTO 20003KT 10SM CLR 03/02 A2983 RMK AO2
KHYW 050135Z AUTO 21003KT 10SM CLR 05/02 A2982 RMK AO2
KHYW 050115Z AUTO 22003KT 10SM CLR 06/02 A2982 RMK AO2
KHYW 050055Z AUTO 22003KT 10SM CLR 05/02 A2981 RMK AO2
KHYW 050035Z AUTO 22003KT 10SM CLR 05/02 A2981 RMK AO2
KHYW 042355Z AUTO 00000KT 10SM CLR 05/03 A2981 RMK AO2
KHYW 042335Z AUTO 00000KT 10SM CLR 05/03 A2980 RMK AO2
KHYW 042315Z AUTO 22003KT 10SM CLR 06/03 A2979 RMK AO2
KHYW 042255Z AUTO 00000KT 10SM CLR 07/02 A2978 RMK AO2
KHYW 042235Z AUTO 00000KT 10SM CLR 09/01 A2978 RMK AO2
KHYW 042215Z AUTO 00000KT 10SM CLR 11/01 A2977 RMK AO2
KHYW 042155Z AUTO 23003KT 10SM CLR 10/02 A2976 RMK AO2
KHYW 042135Z AUTO 00000KT 10SM CLR 13/00 A2976 RMK AO2
KHYW 042115Z AUTO 24005KT 10SM CLR 13/00 A2975 RMK AO2
KHYW 042055Z AUTO 00000KT 10SM CLR 14/00 A2975 RMK AO2
KHYW 042035Z AUTO 23006KT 10SM CLR 14/00 A2976 RMK AO2
KHYW 042015Z AUTO 25004KT 10SM CLR 14/00 A2975 RMK AO2
KHYW 041955Z AUTO 24006KT 10SM CLR 14/00 A2975 RMK AO2
KHYW 041935Z AUTO 24005KT 10SM CLR 14/00 A2974 RMK AO2
KHYW 041915Z AUTO 23004KT 10SM CLR 14/00 A2974 RMK AO2
KHYW 041855Z AUTO 24004KT 10SM CLR 14/00 A2974 RMK AO2
KHYW 041835Z AUTO 25005KT 10SM CLR 13/M01 A2974 RMK AO2
KHYW 041815Z AUTO 22003KT 10SM CLR 13/M01 A2975 RMK AO2
KHYW 041755Z AUTO 23005KT 10SM CLR 13/00 A2975 RMK AO2
KHYW 041735Z AUTO 24004KT 10SM CLR 12/00 A2977 RMK AO2
KHYW 041715Z AUTO 27004KT 10SM CLR 12/00 A2978 RMK AO2
KHYW 041655Z AUTO 29003KT 10SM CLR 12/00 A2979 RMK AO2
KHYW 041635Z AUTO 00000KT 10SM CLR 11/00 A2981 RMK AO2
KHYW 041615Z AUTO 26004KT 10SM CLR 11/01 A2983 RMK AO2
KHYW 041555Z AUTO 31003KT 10SM CLR 10/02 A2983 RMK AO2
KHYW 041535Z AUTO 26005KT 10SM CLR 09/02 A2983 RMK AO2
KHYW 041515Z AUTO 28004KT 10SM CLR 08/02 A2985 RMK AO2
KHYW 041455Z AUTO 28004KT 10SM CLR 07/02 A2985 RMK AO2
KHYW 041435Z AUTO 28003KT 10SM CLR 07/02 A2983 RMK AO2
KHYW 041415Z AUTO 26004KT 10SM CLR 06/02 A2981 RMK AO2
KHYW 041355Z AUTO 26005KT 10SM CLR 05/02 A2983 RMK AO2
KHYW 041335Z AUTO 26003KT 10SM CLR 04/02 A2982 RMK AO2